Time;durP1;ratioP1;P1;durP2;ratioP2;P2;SDS_P1;SDS_P2;PMS_P1;PMS_P2;Temp;Humidity;BMP_temperature;BMP_pressure;BME280_temperature;BME280_humidity;BME280_pressure;Samples;Min_cycle;Max_cycle;Signal;HPM_P1;HPM_P2
2022/01/23 00:02:27;;;;;;;33.70;15.13;;;;;;;1.00;100.00;100207.28;4876982;29;20092;-61
2022/01/23 00:05:11;;;;;;;31.42;14.35;;;;;;;1.01;100.00;100207.31;4864886;29;20078;-57
2022/01/23 00:07:56;;;;;;;33.80;14.63;;;;;;;0.99;100.00;100198.53;4872194;29;20123;-62
2022/01/23 00:10:43;;;;;;;37.28;15.43;;;;;;;1.03;100.00;100221.28;4873710;29;20058;-56
2022/01/23 00:17:13;;;;;;;34.20;14.63;;;;;;;1.08;100.00;100226.63;4875096;29;20100;-68
2022/01/23 00:19:37;;;;;;;33.55;14.32;;;;;;;1.02;100.00;100229.09;4890758;29;20055;-60
2022/01/23 00:22:31;;;;;;;34.55;15.60;;;;;;;0.99;100.00;100240.31;4877691;29;20211;-61
2022/01/23 00:31:41;;;;;;;32.70;15.55;;;;;;;0.86;100.00;100246.06;4877631;29;20059;-60
2022/01/23 00:34:26;;;;;;;33.70;15.18;;;;;;;0.78;100.00;100252.81;4895283;29;20139;-58
2022/01/23 00:37:11;;;;;;;32.90;15.15;;;;;;;0.82;100.00;100252.06;4881505;29;20458;-60
2022/01/23 00:39:56;;;;;;;33.67;14.93;;;;;;;0.86;100.00;100253.03;4907579;29;20062;-65
2022/01/23 00:42:43;;;;;;;30.48;14.70;;;;;;;0.81;100.00;100255.53;4882817;29;20156;-60
2022/01/23 00:45:33;;;;;;;30.02;13.95;;;;;;;0.74;100.00;100252.72;4895034;29;20047;-65
2022/01/23 00:48:25;;;;;;;30.98;14.43;;;;;;;0.86;100.00;100260.88;4909217;29;20573;-57
2022/01/23 00:51:10;;;;;;;32.10;14.07;;;;;;;0.83;100.00;100266.88;4908968;29;21557;-56
2022/01/23 00:53:58;;;;;;;26.60;13.73;;;;;;;0.79;100.00;100278.06;4909353;29;20059;-61
2022/01/23 00:56:43;;;;;;;29.10;13.15;;;;;;;0.80;100.00;100273.75;4907365;29;20067;-64
2022/01/23 00:59:28;;;;;;;;;;;;;;;0.72;100.00;100281.38;4905693;29;20480;-55
2022/01/23 01:02:12;;;;;;;29.38;13.45;;;;;;;0.70;100.00;100280.44;4907510;29;19975;-60
2022/01/23 01:04:58;;;;;;;29.58;14.07;;;;;;;0.79;100.00;100278.06;4899549;29;20127;-58
2022/01/23 01:07:44;;;;;;;25.88;13.40;;;;;;;0.86;100.00;100284.38;4890753;29;20240;-59
2022/01/23 01:10:47;;;;;;;26.20;13.50;;;;;;;0.89;100.00;100292.25;4892437;29;20108;-59
2022/01/23 01:13:57;;;;;;;33.58;13.88;;;;;;;0.88;100.00;100296.63;4868685;29;20115;-59
2022/01/23 01:31:57;;;;;;;21.75;11.73;;;;;;;0.94;100.00;100316.78;4855510;29;20122;-54
2022/01/23 01:35:01;;;;;;;25.52;13.52;;;;;;;0.93;100.00;100312.38;4864794;29;20060;-57
2022/01/23 01:37:47;;;;;;;22.42;11.77;;;;;;;0.94;100.00;100324.59;4857116;29;20105;-58
2022/01/23 01:40:34;;;;;;;26.70;12.82;;;;;;;0.89;100.00;100320.97;4843049;29;20059;-66
2022/01/23 01:43:21;;;;;;;22.05;11.65;;;;;;;0.83;100.00;100323.44;4840916;29;20080;-55
2022/01/23 01:46:05;;;;;;;25.77;12.77;;;;;;;0.91;100.00;100330.59;4870085;29;20125;-58
2022/01/23 01:48:59;;;;;;;23.98;12.65;;;;;;;0.93;100.00;100333.25;4869675;29;20478;-57
2022/01/23 01:51:45;;;;;;;23.23;12.77;;;;;;;0.89;100.00;100342.75;4841580;29;20096;-67
2022/01/23 01:54:34;;;;;;;24.58;13.00;;;;;;;0.97;100.00;100353.38;4855699;29;20055;-59
2022/01/23 01:57:28;;;;;;;26.60;12.20;;;;;;;0.94;100.00;100354.19;4855559;29;20861;-60
2022/01/23 02:00:54;;;;;;;27.45;13.38;;;;;;;1.04;100.00;100360.53;4868314;29;20055;-62
2022/01/23 02:10:00;;;;;;;30.58;14.18;;;;;;;0.87;100.00;100365.28;4894574;29;20056;-63
2022/01/23 02:16:15;;;;;;;27.83;14.10;;;;;;;0.95;100.00;100375.97;4888405;29;20135;-58
2022/01/23 02:55:28;;;;;;;24.95;13.05;;;;;;;0.94;100.00;100436.84;4887846;29;20146;-60
2022/01/23 02:58:22;;;;;;;28.90;13.38;;;;;;;0.92;100.00;100441.13;4880133;29;20590;-64
2022/01/23 03:01:17;;;;;;;23.73;12.18;;;;;;;0.79;100.00;100445.09;4889192;29;20512;-62
2022/01/23 03:04:21;;;;;;;23.75;12.23;;;;;;;0.86;100.00;100454.88;4891663;29;20497;-63
2022/01/23 03:11:05;;;;;;;23.77;12.02;;;;;;;0.60;100.00;100463.69;4892229;29;20051;-59
2022/01/23 03:26:01;;;;;;;24.58;12.00;;;;;;;0.92;100.00;100498.56;4891094;29;20375;-62
2022/01/23 03:29:23;;;;;;;22.50;12.07;;;;;;;0.90;100.00;100502.88;4892153;29;20105;-60
2022/01/23 03:34:37;;;;;;;25.58;13.25;;;;;;;0.83;100.00;100507.00;4889467;29;20051;-59
2022/01/23 03:37:22;;;;;;;24.83;12.63;;;;;;;0.73;100.00;100510.19;4892555;29;20108;-58
2022/01/23 03:40:09;;;;;;;23.00;12.60;;;;;;;0.62;100.00;100510.66;4892381;29;20087;-57
2022/01/23 03:43:07;;;;;;;24.08;12.32;;;;;;;0.71;100.00;100524.03;4888206;29;20063;-76
2022/01/23 03:51:29;;;;;;;26.05;12.57;;;;;;;0.68;100.00;100527.44;4868742;29;20142;-60
2022/01/23 03:54:15;;;;;;;23.58;12.75;;;;;;;0.68;100.00;100535.25;4874233;29;20060;-60
2022/01/23 03:57:05;;;;;;;24.48;12.93;;;;;;;0.49;100.00;100538.13;4895420;29;20108;-57
2022/01/23 03:59:51;;;;;;;24.05;12.45;;;;;;;0.57;100.00;100543.56;4886618;29;20105;-57
2022/01/23 04:02:36;;;;;;;27.27;12.95;;;;;;;0.65;100.00;100542.97;4883086;29;20140;-55
2022/01/23 04:05:22;;;;;;;24.48;11.75;;;;;;;0.67;100.00;100545.66;4888430;29;20067;-75
2022/01/23 04:08:06;;;;;;;22.92;12.00;;;;;;;0.74;100.00;100550.22;4893166;29;20080;-57
2022/01/23 04:10:52;;;;;;;22.00;11.68;;;;;;;0.77;100.00;100565.94;4875027;29;20152;-56
2022/01/23 04:13:49;;;;;;;23.75;12.23;;;;;;;0.86;100.00;100571.47;4892517;29;20056;-56
2022/01/23 04:19:59;;;;;;;22.85;11.80;;;;;;;0.86;100.00;100589.75;4893398;29;21038;-54
2022/01/23 05:05:27;;;;;;;21.80;11.48;;;;;;;0.83;100.00;100649.69;4891223;29;20124;-64
2022/01/23 05:08:37;;;;;;;25.25;12.00;;;;;;;0.70;100.00;100650.13;4888903;29;20056;-56
2022/01/23 05:12:04;;;;;;;22.33;11.73;;;;;;;0.81;100.00;100667.91;4906465;29;20051;-59
2022/01/23 05:14:49;;;;;;;27.20;12.82;;;;;;;0.77;100.00;100671.25;4896286;29;20112;-56
2022/01/23 05:17:34;;;;;;;24.60;11.88;;;;;;;0.78;100.00;100675.63;4895773;29;20052;-56
2022/01/23 05:20:25;;;;;;;22.95;12.30;;;;;;;0.82;100.00;100674.03;4893726;29;20524;-56
2022/01/23 05:23:09;;;;;;;21.50;11.65;;;;;;;0.88;100.00;100682.03;4895673;29;20130;-57
2022/01/23 05:25:54;;;;;;;23.38;12.27;;;;;;;0.95;100.00;100692.72;4906833;29;20079;-56
2022/01/23 05:28:41;;;;;;;20.73;11.23;;;;;;;0.91;100.00;100698.69;4895158;29;20158;-57
2022/01/23 05:31:25;;;;;;;26.60;12.00;;;;;;;0.72;100.00;100708.47;4895639;29;20055;-57
2022/01/23 05:34:10;;;;;;;23.20;12.70;;;;;;;0.81;100.00;100709.66;4906510;29;20142;-68
2022/01/23 05:36:58;;;;;;;28.17;13.18;;;;;;;0.84;100.00;100719.31;4889892;29;20059;-54
2022/01/23 05:39:44;;;;;;;20.50;11.35;;;;;;;0.86;100.00;100721.13;4876613;29;20063;-59
2022/01/23 05:42:30;;;;;;;23.35;11.88;;;;;;;0.84;100.00;100719.31;4926997;29;20143;-62
2022/01/23 05:45:17;;;;;;;27.40;13.30;;;;;;;0.67;100.00;100733.53;4914536;29;20057;-61
2022/01/23 05:48:21;;;;;;;27.52;12.27;;;;;;;0.71;100.00;100724.97;4910747;29;20512;-57
2022/01/23 05:51:28;;;;;;;25.83;12.18;;;;;;;0.63;100.00;100718.59;4894777;29;20062;-63
2022/01/23 05:54:34;;;;;;;26.35;12.73;;;;;;;0.76;100.00;100739.06;4907948;29;20059;-60
2022/01/23 05:57:57;;;;;;;27.25;13.13;;;;;;;0.79;100.00;100749.59;4931507;29;20213;-57
2022/01/23 06:00:50;;;;;;;26.08;12.55;;;;;;;0.73;100.00;100754.59;4904644;29;20428;-66
2022/01/23 06:03:38;;;;;;;27.95;13.02;;;;;;;0.56;100.00;100759.25;4927719;29;20226;-56
2022/01/23 06:06:27;;;;;;;25.05;12.60;;;;;;;0.56;100.00;100748.81;4911771;29;20151;-58
2022/01/23 06:09:11;;;;;;;29.15;13.68;;;;;;;0.69;100.00;100768.38;4926537;29;20115;-57
2022/01/23 06:11:57;;;;;;;26.85;12.95;;;;;;;0.73;100.00;100772.88;4899648;29;20183;-54
2022/01/23 06:14:41;;;;;;;27.30;13.43;;;;;;;0.82;100.00;100768.84;4913261;29;20106;-58
2022/01/23 06:17:26;;;;;;;25.67;13.23;;;;;;;0.88;100.00;100771.69;4899782;29;20468;-58
2022/01/23 06:20:29;;;;;;;25.17;13.15;;;;;;;0.90;100.00;100783.06;4926680;29;20055;-57
2022/01/23 06:24:53;;;;;;;23.85;12.60;;;;;;;0.94;100.00;100784.94;4870575;29;20120;-65
2022/01/23 06:27:35;;;;;;;28.10;12.95;;;;;;;0.94;100.00;100800.59;4832988;29;20085;-73
2022/01/23 06:30:21;;;;;;;26.08;12.90;;;;;;;0.98;100.00;100799.88;4802083;29;20124;-61
2022/01/23 06:33:06;;;;;;;28.75;12.85;;;;;;;1.02;100.00;100813.94;4813988;29;20554;-55
2022/01/23 06:35:51;;;;;;;;;;;;;;;0.93;100.00;100824.94;4803325;29;20098;-64
2022/01/23 06:38:37;;;;;;;27.08;12.82;;;;;;;0.83;100.00;100825.44;4814818;29;19982;-56
2022/01/23 06:41:23;;;;;;;26.70;13.10;;;;;;;0.79;100.00;100825.31;4808381;29;20061;-59
2022/01/23 06:44:26;;;;;;;30.30;14.13;;;;;;;0.68;100.00;100831.84;4814720;29;20048;-58
2022/01/23 06:47:12;;;;;;;27.15;13.73;;;;;;;0.75;100.00;100839.06;4826472;29;20461;-59
2022/01/23 06:49:57;;;;;;;25.42;12.65;;;;;;;0.79;100.00;100839.22;4814542;29;20053;-55
2022/01/23 06:52:44;;;;;;;29.23;13.57;;;;;;;0.87;100.00;100840.38;4814576;29;20056;-61
2022/01/23 06:55:30;;;;;;;29.73;13.95;;;;;;;0.92;100.00;100845.78;4859252;29;20694;-56
2022/01/23 06:58:17;;;;;;;27.58;13.75;;;;;;;0.96;100.00;100848.56;4866976;29;20059;-62
2022/01/23 07:01:07;;;;;;;28.15;13.35;;;;;;;1.02;100.00;100859.19;4865565;29;20097;-60
2022/01/23 07:04:15;;;;;;;27.00;12.27;;;;;;;1.09;100.00;100868.13;4865902;29;20544;-61
2022/01/23 07:07:26;;;;;;;31.38;13.68;;;;;;;1.14;100.00;100870.06;4881534;29;20095;-60
2022/01/23 07:10:29;;;;;;;25.60;13.25;;;;;;;1.13;100.00;100870.00;4888981;29;20055;-58
2022/01/23 07:13:25;;;;;;;25.98;13.25;;;;;;;1.11;100.00;100876.91;4890448;29;20108;-57
2022/01/23 07:16:33;;;;;;;31.83;14.15;;;;;;;1.16;100.00;100877.97;4884605;29;20141;-59
2022/01/23 07:19:30;;;;;;;27.88;14.20;;;;;;;1.32;100.00;100885.50;4875666;29;20055;-62
2022/01/23 07:22:19;;;;;;;30.88;14.85;;;;;;;1.25;100.00;100875.66;4886753;29;20097;-57
2022/01/23 07:25:06;;;;;;;29.00;14.05;;;;;;;1.28;100.00;100887.13;4881490;29;20144;-58
2022/01/23 07:27:55;;;;;;;31.10;14.20;;;;;;;1.31;100.00;100894.19;4893081;29;20059;-72
2022/01/23 07:30:52;;;;;;;28.13;13.55;;;;;;;1.36;100.00;100900.44;4874833;29;20052;-64
2022/01/23 07:33:38;;;;;;;28.02;13.25;;;;;;;1.26;100.00;100906.19;4875720;29;20060;-68
2022/01/23 07:36:25;;;;;;;27.40;14.05;;;;;;;1.37;100.00;100908.34;4894851;29;20059;-59
2022/01/23 07:39:14;;;;;;;30.10;13.80;;;;;;;1.25;100.00;100913.13;4892428;29;20075;-74
2022/01/23 07:46:56;;;;;;;26.35;13.57;;;;;;;1.46;100.00;100923.44;4889659;29;20060;-72
2022/01/23 07:50:03;;;;;;;29.73;14.67;;;;;;;1.36;100.00;100929.19;4889263;29;20103;-58
2022/01/23 07:53:11;;;;;;;26.48;13.20;;;;;;;1.53;100.00;100938.47;4882077;29;20311;-75
2022/01/23 07:56:04;;;;;;;28.65;13.23;;;;;;;1.64;100.00;100937.13;4891902;29;20132;-58
2022/01/23 07:59:12;;;;;;;26.63;13.75;;;;;;;1.50;100.00;100939.25;4882044;29;20060;-55
2022/01/23 08:02:27;;;;;;;28.30;14.20;;;;;;;1.53;100.00;100948.94;4853672;29;20232;-62
2022/01/23 08:05:36;;;;;;;23.45;12.75;;;;;;;1.67;100.00;100958.16;4833846;29;20052;-60
2022/01/23 08:09:00;;;;;;;31.70;13.88;;;;;;;1.70;100.00;100958.25;4853655;29;20592;-63
2022/01/23 08:11:52;;;;;;;29.95;13.25;;;;;;;1.85;100.00;100971.81;4841577;29;20055;-63
2022/01/23 08:14:38;;;;;;;28.88;13.75;;;;;;;1.98;100.00;100980.13;4852620;29;20068;-60
2022/01/23 08:17:46;;;;;;;28.13;13.52;;;;;;;2.08;100.00;100986.56;4853055;29;20079;-65
2022/01/23 08:20:34;;;;;;;24.95;11.95;;;;;;;1.85;100.00;100977.06;4867125;29;20436;-59
2022/01/23 08:23:21;;;;;;;25.88;12.93;;;;;;;1.96;100.00;100986.16;4852309;29;20567;-66
2022/01/23 08:26:08;;;;;;;23.35;12.75;;;;;;;1.96;100.00;100996.63;4837973;29;20141;-62
2022/01/23 08:28:52;;;;;;;26.08;13.07;;;;;;;2.10;100.00;100996.22;4821575;29;20061;-60
2022/01/23 08:31:37;;;;;;;24.98;13.32;;;;;;;2.18;100.00;101004.34;4829457;29;20086;-74
2022/01/23 08:34:22;;;;;;;28.55;12.93;;;;;;;2.24;100.00;101005.44;4816002;29;20199;-58
2022/01/23 08:37:08;;;;;;;24.17;13.70;;;;;;;2.27;100.00;101005.53;4779610;29;20062;-57
2022/01/23 08:39:54;;;;;;;24.88;12.73;;;;;;;2.23;100.00;101014.13;4814206;29;20210;-63
2022/01/23 08:42:42;;;;;;;23.23;13.15;;;;;;;2.38;100.00;101017.22;4851223;29;20873;-56
2022/01/23 08:45:27;;;;;;;22.33;12.70;;;;;;;2.44;100.00;101013.91;4821364;29;20060;-67
2022/01/23 08:48:12;;;;;;;30.35;13.18;;;;;;;2.56;100.00;101015.22;4855869;29;20096;-59
2022/01/23 08:50:57;;;;;;;21.17;12.52;;;;;;;2.73;100.00;101034.94;4891224;29;20594;-68
2022/01/23 08:53:42;;;;;;;22.27;12.60;;;;;;;2.83;100.00;101033.50;4891849;29;20123;-62
2022/01/23 08:56:27;;;;;;;21.75;12.45;;;;;;;2.91;100.00;101035.53;4869146;29;20075;-61
2022/01/23 08:59:12;;;;;;;21.80;12.30;;;;;;;2.85;100.00;101039.69;4892031;29;20429;-62
2022/01/23 09:01:58;;;;;;;22.90;12.52;;;;;;;2.94;100.00;101056.59;4875114;29;20067;-56
2022/01/23 09:04:47;;;;;;;21.23;12.60;;;;;;;3.10;100.00;101063.16;4880394;29;20417;-75
2022/01/23 09:10:02;;;;;;;23.02;12.63;;;;;;;3.19;100.00;101061.72;4891805;29;20056;-57
2022/01/23 09:13:04;;;;;;;21.27;11.73;;;;;;;3.29;100.00;101073.38;4891154;29;20144;-58
2022/01/23 09:15:49;;;;;;;21.48;12.57;;;;;;;3.18;100.00;101067.81;4891525;29;20461;-56
2022/01/23 09:18:35;;;;;;;24.10;13.15;;;;;;;3.05;100.00;101075.25;4890144;29;20071;-59
2022/01/23 09:21:19;;;;;;;22.67;12.13;;;;;;;3.00;100.00;101071.56;4889909;29;20112;-59
2022/01/23 09:24:05;;;;;;;22.02;12.55;;;;;;;3.00;100.00;101063.72;4885252;29;20075;-63
2022/01/23 09:26:54;;;;;;;22.55;12.23;;;;;;;2.83;100.00;101080.66;4889668;29;20052;-59
2022/01/23 09:29:42;;;;;;;22.48;13.07;;;;;;;2.80;100.00;101081.44;4876846;29;20136;-61
2022/01/23 09:32:27;;;;;;;21.52;12.32;;;;;;;2.76;100.00;101086.53;4876815;29;20529;-60
2022/01/23 09:35:14;;;;;;;22.55;12.82;;;;;;;2.75;100.00;101092.59;4890914;29;20055;-63
2022/01/23 09:37:59;;;;;;;22.05;12.48;;;;;;;2.86;100.00;101093.84;4900001;29;20145;-72
2022/01/23 09:40:45;;;;;;;23.92;13.40;;;;;;;2.83;100.00;101085.88;4887123;29;20100;-61
2022/01/23 09:43:32;;;;;;;25.15;13.35;;;;;;;2.92;100.00;101091.41;4887119;29;20075;-59
2022/01/23 09:46:18;;;;;;;23.60;13.07;;;;;;;2.92;100.00;101097.53;4888733;29;20127;-60
2022/01/23 09:49:03;;;;;;;24.52;12.65;;;;;;;2.96;100.00;101099.41;4888836;29;20051;-63
2022/01/23 09:51:50;;;;;;;21.92;12.82;;;;;;;2.89;100.00;101094.81;4888437;29;20051;-68
2022/01/23 09:54:39;;;;;;;21.33;11.85;;;;;;;2.94;100.00;101102.84;4903069;29;20126;-62
2022/01/23 09:57:50;;;;;;;21.23;12.18;;;;;;;2.99;100.00;101109.09;4891836;29;20425;-60
2022/01/23 10:00:34;;;;;;;21.65;12.70;;;;;;;2.96;100.00;101112.50;4885057;29;20066;-59
2022/01/23 10:03:20;;;;;;;21.10;12.82;;;;;;;2.98;100.00;101104.72;4877374;29;20122;-61
2022/01/23 10:06:08;;;;;;;23.20;12.80;;;;;;;3.07;100.00;101107.59;4889000;29;20051;-60
2022/01/23 10:08:54;;;;;;;24.05;12.25;;;;;;;3.17;100.00;101114.94;4876378;29;20474;-64
2022/01/23 10:11:42;;;;;;;22.23;11.98;;;;;;;3.21;100.00;101122.03;4889714;29;20147;-62
2022/01/23 10:14:27;;;;;;;23.42;12.73;;;;;;;3.22;100.00;101119.47;4883850;29;20534;-59
2022/01/23 10:17:11;;;;;;;24.23;13.38;;;;;;;3.26;100.00;101126.59;4888384;29;20067;-61
2022/01/23 10:19:57;;;;;;;20.63;12.23;;;;;;;3.21;100.00;101135.16;4877473;29;20094;-59
2022/01/23 10:22:45;;;;;;;22.77;12.23;;;;;;;3.24;100.00;101138.72;4890645;29;20058;-59
2022/01/23 10:25:33;;;;;;;22.95;12.32;;;;;;;3.31;100.00;101142.44;4891950;29;20071;-63
2022/01/23 10:30:48;;;;;;;22.33;13.55;;;;;;;3.23;100.00;101143.94;4876966;29;20078;-63
2022/01/23 10:33:37;;;;;;;21.30;12.43;;;;;;;3.18;100.00;101148.13;4869914;29;20044;-67
2022/01/23 10:36:22;;;;;;;20.58;12.15;;;;;;;3.18;100.00;101146.41;4859562;29;20087;-68
2022/01/23 10:39:06;;;;;;;24.65;12.75;;;;;;;3.14;100.00;101149.78;4889538;29;20433;-62
2022/01/23 10:42:11;;;;;;;21.55;12.02;;;;;;;3.09;100.00;101148.72;4901762;29;20492;-62
2022/01/23 10:48:11;;;;;;;19.63;11.73;;;;;;;3.00;100.00;101152.78;4891340;29;20091;-65
2022/01/23 10:51:16;;;;;;;27.00;13.43;;;;;;;3.18;100.00;101163.88;4890617;29;20513;-63
2022/01/23 10:54:15;;;;;;;23.70;12.38;;;;;;;3.06;100.00;101160.84;4904030;29;20056;-67
2022/01/23 10:57:09;;;;;;;23.88;13.15;;;;;;;3.16;100.00;101169.06;4889844;29;20541;-73
2022/01/23 10:59:54;;;;;;;26.77;13.15;;;;;;;2.97;100.00;101176.28;4887937;29;20083;-65
2022/01/23 11:02:41;;;;;;;25.35;13.30;;;;;;;2.95;100.00;101168.38;4879300;29;20087;-62
2022/01/23 11:05:38;;;;;;;26.50;15.02;;;;;;;2.86;100.00;101168.09;4893681;29;20426;-63
2022/01/23 11:08:28;;;;;;;28.35;14.93;;;;;;;2.70;100.00;101173.66;4878022;29;20172;-62
2022/01/23 11:11:12;;;;;;;28.80;15.13;;;;;;;2.67;100.00;101186.63;4880259;29;20184;-62
2022/01/23 11:17:52;;;;;;;31.35;15.15;;;;;;;2.63;100.00;101190.00;4892379;29;20532;-64
2022/01/23 11:20:46;;;;;;;29.83;15.98;;;;;;;2.68;100.00;101200.59;4874402;29;20524;-71
2022/01/23 11:23:34;;;;;;;30.90;16.47;;;;;;;2.61;100.00;101196.88;4873652;29;20191;-65
2022/01/23 11:26:19;;;;;;;26.65;15.55;;;;;;;2.53;100.00;101200.09;4893457;29;20296;-64
2022/01/23 11:29:15;;;;;;;28.20;14.85;;;;;;;2.64;100.00;101209.19;4892716;29;20458;-63
2022/01/23 11:31:59;;;;;;;30.45;16.23;;;;;;;2.62;100.00;101214.41;4876192;29;20047;-64
2022/01/23 11:34:46;;;;;;;34.95;17.85;;;;;;;2.64;100.00;101215.31;4874355;29;20052;-63
2022/01/23 11:37:32;;;;;;;33.60;17.33;;;;;;;2.62;100.00;101224.88;4888166;29;20104;-61
2022/01/23 11:50:39;;;;;;;38.40;18.75;;;;;;;2.62;100.00;101235.34;4875236;29;20524;-59
2022/01/23 11:55:46;;;;;;;38.45;18.88;;;;;;;2.17;100.00;101248.50;4893035;29;20108;-60
2022/01/23 11:58:36;;;;;;;36.65;18.83;;;;;;;2.15;100.00;101255.41;4893438;29;20059;-58
2022/01/23 12:01:26;;;;;;;39.10;18.40;;;;;;;2.24;100.00;101255.72;4892866;29;20508;-60
2022/01/23 12:04:22;;;;;;;34.00;18.58;;;;;;;2.37;100.00;101261.47;4891352;29;20074;-65
2022/01/23 12:07:20;;;;;;;34.05;16.95;;;;;;;2.42;100.00;101257.28;4886409;29;20108;-63
2022/01/23 12:10:14;;;;;;;33.65;17.42;;;;;;;2.38;100.00;101259.75;4889202;29;20107;-62
2022/01/23 12:13:44;;;;;;;35.13;16.92;;;;;;;2.48;100.00;101270.59;4889980;29;20067;-72
2022/01/23 12:16:53;;;;;;;31.80;17.33;;;;;;;2.46;100.00;101269.66;4873434;29;20465;-65
2022/01/23 12:19:43;;;;;;;34.38;17.75;;;;;;;2.36;100.00;101274.50;4872480;29;20566;-60
2022/01/23 12:22:35;;;;;;;36.22;17.90;;;;;;;2.25;100.00;101270.63;4874198;29;20120;-62
2022/01/23 12:25:27;;;;;;;32.67;17.73;;;;;;;2.28;100.00;101274.22;4874626;29;20052;-60
2022/01/23 12:28:28;;;;;;;34.88;17.33;;;;;;;2.23;100.00;101280.13;4891013;29;20536;-61
2022/01/23 12:31:20;;;;;;;32.20;17.13;;;;;;;2.18;100.00;101286.91;4890167;29;20508;-62
2022/01/23 12:34:06;;;;;;;35.08;17.63;;;;;;;1.94;100.00;101286.88;4894617;29;20123;-63
2022/01/23 12:36:56;;;;;;;38.40;17.60;;;;;;;2.02;100.00;101297.63;4893360;29;20091;-60
2022/01/23 12:39:42;;;;;;;39.20;17.95;;;;;;;1.84;100.00;101295.22;4877660;29;20135;-70
2022/01/23 12:43:16;;;;;;;33.30;17.23;;;;;;;1.84;100.00;101291.69;4890477;29;20063;-64
2022/01/23 12:46:06;;;;;;;34.65;17.23;;;;;;;1.86;100.00;101300.50;4891704;29;20062;-60
2022/01/23 12:48:51;;;;;;;32.63;16.80;;;;;;;1.77;100.00;101284.44;4886722;29;20100;-61
2022/01/23 12:51:38;;;;;;;33.67;16.45;;;;;;;1.74;100.00;101303.50;4877087;29;20072;-65
2022/01/23 12:54:29;;;;;;;32.15;16.17;;;;;;;1.79;100.00;101302.00;4889895;29;20111;-66
2022/01/23 12:57:22;;;;;;;30.83;16.15;;;;;;;1.78;100.00;101309.78;4878824;29;20087;-66
2022/01/23 13:00:24;;;;;;;32.60;16.50;;;;;;;1.77;100.00;101321.03;4874464;29;20068;-61
2022/01/23 13:03:13;;;;;;;35.85;17.75;;;;;;;1.78;100.00;101328.94;4890708;29;20115;-67
2022/01/23 13:05:58;;;;;;;32.63;16.80;;;;;;;1.66;100.00;101319.75;4874194;29;20091;-55
2022/01/23 13:08:52;;;;;;;34.47;16.70;;;;;;;1.57;100.00;101325.47;4874271;29;20140;-60
2022/01/23 13:32:46;;;;;;;32.35;16.15;;;;;;;1.45;100.00;101355.44;4895545;29;20059;-64
2022/01/23 13:35:38;;;;;;;34.00;15.95;;;;;;;1.55;100.00;101365.47;4881401;29;20516;-66
2022/01/23 13:38:24;;;;;;;33.67;15.68;;;;;;;1.55;100.00;101368.97;4894628;29;20115;-59
2022/01/23 13:41:22;;;;;;;;;;;;;;;1.63;100.00;101374.50;4908028;29;20099;-61
2022/01/23 13:54:05;;;;;;;31.90;16.08;;;;;;;1.51;100.00;101407.97;4888262;29;20060;-60
2022/01/23 14:00:23;;;;;;;27.05;14.75;;;;;;;1.26;100.00;101411.25;4887747;29;20051;-63
2022/01/23 14:03:10;;;;;;;28.77;14.40;;;;;;;1.20;100.00;101415.34;4888573;29;20126;-72
2022/01/23 14:05:55;;;;;;;27.58;14.40;;;;;;;1.16;100.00;101402.97;4889714;29;20079;-57
2022/01/23 14:08:40;;;;;;;29.90;15.13;;;;;;;1.19;100.00;101414.44;4874058;29;20532;-58
2022/01/23 14:11:26;;;;;;;;;;;;;;;1.27;100.00;101436.56;4875863;29;20109;-55
2022/01/23 14:14:14;;;;;;;25.27;13.60;;;;;;;1.24;100.00;101432.94;4858177;29;19956;-63
2022/01/23 14:17:13;;;;;;;31.02;15.18;;;;;;;1.38;100.00;101434.44;4888745;29;20421;-75
2022/01/23 14:19:59;;;;;;;26.73;15.05;;;;;;;1.16;100.00;101437.84;4876507;29;20201;-62
2022/01/23 14:22:47;;;;;;;28.38;13.95;;;;;;;1.13;100.00;101429.84;4876827;29;20059;-62
2022/01/23 14:25:33;;;;;;;28.88;14.38;;;;;;;1.11;100.00;101446.28;4888471;29;20648;-68
2022/01/23 14:28:27;;;;;;;;;;;;;;;1.24;100.00;101449.50;4893312;29;20083;-66
2022/01/23 14:31:56;;;;;;;27.77;13.75;;;;;;;1.18;100.00;101464.91;4881303;29;20090;-62
2022/01/23 14:34:24;;;;;;;25.92;14.35;;;;;;;1.22;100.00;101466.81;4875630;29;20525;-61
2022/01/23 14:37:10;;;;;;;30.95;15.05;;;;;;;1.15;100.00;101467.38;4878674;29;20084;-71
2022/01/23 14:40:17;;;;;;;27.67;14.27;;;;;;;1.21;100.00;101461.53;4907336;29;20562;-65
2022/01/23 14:43:05;;;;;;;29.77;14.60;;;;;;;1.18;100.00;101475.34;4897458;29;20104;-61
2022/01/23 14:45:53;;;;;;;30.95;15.20;;;;;;;1.16;100.00;101479.63;4866755;29;20545;-65
2022/01/23 14:48:46;;;;;;;31.55;15.77;;;;;;;1.06;100.00;101473.94;4880882;29;20047;-63
2022/01/23 14:51:34;;;;;;;29.75;14.77;;;;;;;1.01;100.00;101491.09;4881329;29;20139;-66
2022/01/23 14:54:21;;;;;;;30.08;14.95;;;;;;;0.88;100.00;101494.88;4895278;29;20075;-64
2022/01/23 14:57:11;;;;;;;28.33;15.52;;;;;;;0.91;100.00;101504.56;4867097;29;20532;-59
2022/01/23 14:59:59;;;;;;;29.83;15.07;;;;;;;0.98;100.00;101506.66;4893699;29;20132;-59
2022/01/23 15:02:44;;;;;;;29.23;15.13;;;;;;;0.95;100.00;101509.09;4895674;29;20117;-57
2022/01/23 15:05:34;;;;;;;29.60;15.48;;;;;;;0.89;100.00;101511.41;4881286;29;20152;-64
2022/01/23 15:08:24;;;;;;;30.25;15.48;;;;;;;0.83;100.00;101514.63;4892827;29;20056;-73
2022/01/23 15:11:08;;;;;;;33.17;15.27;;;;;;;0.92;100.00;101527.25;4893440;29;20063;-59
2022/01/23 15:13:52;;;;;;;31.20;15.95;;;;;;;0.90;100.00;101541.97;4893112;29;20417;-58
2022/01/23 15:16:38;;;;;;;29.83;15.90;;;;;;;0.80;100.00;101551.06;4876369;29;20198;-58
2022/01/23 15:19:24;;;;;;;33.05;16.02;;;;;;;0.84;100.00;101573.91;4888725;29;20089;-59
2022/01/23 15:22:09;;;;;;;30.85;16.48;;;;;;;0.77;100.00;101557.84;4893222;29;20059;-71
2022/01/23 15:24:53;;;;;;;35.80;16.90;;;;;;;0.76;100.00;101572.63;4894060;29;20139;-61
2022/01/23 15:27:40;;;;;;;34.55;17.52;;;;;;;0.74;100.00;101569.03;4890978;29;20083;-63
2022/01/23 15:30:26;;;;;;;33.03;17.08;;;;;;;0.80;100.00;101571.97;4880089;29;20108;-61
2022/01/23 15:33:11;;;;;;;32.22;16.35;;;;;;;0.84;100.00;101573.00;4889775;29;20055;-62
2022/01/23 15:35:55;;;;;;;32.42;17.50;;;;;;;0.85;100.00;101573.06;4880956;29;20063;-58
2022/01/23 15:38:43;;;;;;;35.00;17.42;;;;;;;0.83;100.00;101571.22;4882808;29;20051;-63
2022/01/23 15:41:29;;;;;;;34.90;17.55;;;;;;;0.88;100.00;101581.06;4890860;29;20056;-73
2022/01/23 15:44:14;;;;;;;35.05;17.08;;;;;;;0.98;100.00;101580.63;4893705;29;20075;-62
2022/01/23 15:46:58;;;;;;;31.80;16.55;;;;;;;0.93;100.00;101578.63;4883832;29;20068;-59
2022/01/23 15:49:43;;;;;;;29.58;16.13;;;;;;;0.89;100.00;101581.94;4874629;29;20517;-64
2022/01/23 15:52:28;;;;;;;31.17;16.17;;;;;;;0.91;100.00;101591.63;4893545;29;20140;-60
2022/01/23 15:55:14;;;;;;;32.08;15.40;;;;;;;0.92;100.00;101601.25;4893385;29;20059;-61
2022/01/23 15:58:00;;;;;;;32.88;16.88;;;;;;;0.82;100.00;101595.53;4877762;29;20231;-59
2022/01/23 16:00:46;;;;;;;31.20;16.60;;;;;;;0.90;100.00;101602.88;4877666;29;20074;-66
2022/01/23 16:03:31;;;;;;;35.28;17.20;;;;;;;0.89;100.00;101602.81;4889279;29;20055;-59
2022/01/23 16:06:15;;;;;;;33.05;16.77;;;;;;;0.74;100.00;101602.09;4891511;29;20063;-59
2022/01/23 16:09:01;;;;;;;37.30;17.10;;;;;;;0.72;100.00;101609.88;4875902;29;20071;-62
2022/01/23 16:11:46;;;;;;;35.20;17.58;;;;;;;0.74;100.00;101604.72;4889330;29;20056;-58
2022/01/23 16:14:30;;;;;;;31.02;16.73;;;;;;;0.84;100.00;101622.59;4879352;29;20059;-63
2022/01/23 16:17:15;;;;;;;36.05;18.48;;;;;;;0.89;100.00;101621.09;4891789;29;20144;-57
2022/01/23 16:20:02;;;;;;;35.55;17.98;;;;;;;0.86;100.00;101642.72;4878026;29;20084;-67
2022/01/23 16:22:48;;;;;;;36.58;18.17;;;;;;;0.86;100.00;101660.13;4878868;29;20060;-64
2022/01/23 16:25:34;;;;;;;35.03;16.88;;;;;;;0.84;100.00;101651.31;4879107;29;20588;-59